Tuscola, MI

2:04 AM EST on December 25, 2014 (GMT -0500)
Baker Rd | Change Station
CLOSE
Current Station
Personal Weather Station
Location: Frankenmuth, MI
Elevation: 633 ft
Nearby Weather Stations

Elev 633 ft 43.36 °N, 83.80 °W | Updated 44 minutes ago

Overcast
Overcast
33.4 °F
Feels Like 26 °F
N
8.3
Wind Variable Wind from WSW

Today
High -- | Low -- °F
--% Chance of Precip.
Yesterday
High -- | Low -- °F
Precip. -- in
8:05 AM 5:03 PM
Waxing Crescent, 14% visible
Pressure 29.43 in
Visibility 7.0 miles
Clouds Overcast 500 ft
Windchill 26 °F
Dew Point 33 °F
Humidity 99%
Rainfall 0.04 in
Snow Depth Not available.
UV 0 out of 12
Pollen .10 out of 12
Air Quality Not available.
Flu Activity Not available.
METAR KCFS 250635Z AUTO 24009G15KT 7SM UP OVC005 01/00 A2943 RMK AO2 T00060002

More Conditions Fewer Conditions

Pressure 29.43 in
Visibility 7.0 miles
Clouds Overcast 500 ft
Windchill 26 °F
Dew Point 33 °F
Humidity 99%
Rainfall 0.04 in
Snow Depth Not available.
UV 0 out of 12
Pollen .10 out of 12
Air Quality Not available.
Flu Activity Not available.
METAR KCFS 250635Z AUTO 24009G15KT 7SM UP OVC005 01/00 A2943 RMK AO2 T00060002

More Conditions Fewer Conditions

10-Day Weather Forecast

Almanac

Astronomy

Dec. 25, 2014 Rise Set
Actual Time
Civil Twilight
Nautical Twilight
Astronomical Twilight
Moon
Length of Visible Light
Length of Day
Tomorrow will be .
, % of the Moon is Illuminated

Today's Extremes

State Highs State Lows

Community

WunderPhotos

Upload Photos

1,780,250 photos uploaded!

WunderBlogs® & News

Nearby

Air Quality

  Air Quality AQ Index Pollutant
Not available.

Snow Depth

Station Depth Elevation

Earthquake Activity

City Distance Mag. Time & Date
Minimum magnitude displayed is 2.5.

Coastal Water Temperatures

Place Temperature

Nearby Weather Stations